sensor_id;sensor_type;location;lat;lon;timestamp;P1;durP1;ratioP1;P2;durP2;ratioP2
3901;SDS011;1966;49.908;9.156;2023-04-03T00:04:26;4.20;;;3.80;;
3901;SDS011;1966;49.908;9.156;2023-04-03T00:09:27;5.53;;;3.53;;
3901;SDS011;1966;49.908;9.156;2023-04-03T00:14:26;3.70;;;3.20;;
3901;SDS011;1966;49.908;9.156;2023-04-03T00:19:26;4.90;;;3.70;;
3901;SDS011;1966;49.908;9.156;2023-04-03T00:24:27;4.43;;;4.03;;
3901;SDS011;1966;49.908;9.156;2023-04-03T00:29:26;3.97;;;3.57;;
3901;SDS011;1966;49.908;9.156;2023-04-03T00:34:25;4.30;;;3.90;;
3901;SDS011;1966;49.908;9.156;2023-04-03T00:39:24;4.40;;;4.00;;
3901;SDS011;1966;49.908;9.156;2023-04-03T00:49:39;4.13;;;3.77;;
3901;SDS011;1966;49.908;9.156;2023-04-03T00:54:39;4.97;;;3.57;;
3901;SDS011;1966;49.908;9.156;2023-04-03T00:59:39;4.43;;;3.90;;
3901;SDS011;1966;49.908;9.156;2023-04-03T01:04:43;4.37;;;3.97;;
3901;SDS011;1966;49.908;9.156;2023-04-03T01:09:43;4.43;;;4.03;;
3901;SDS011;1966;49.908;9.156;2023-04-03T01:14:43;3.70;;;3.40;;
3901;SDS011;1966;49.908;9.156;2023-04-03T01:19:45;4.10;;;3.70;;
3901;SDS011;1966;49.908;9.156;2023-04-03T01:24:47;4.20;;;3.80;;
3901;SDS011;1966;49.908;9.156;2023-04-03T01:29:47;6.60;;;4.17;;
3901;SDS011;1966;49.908;9.156;2023-04-03T01:34:48;4.17;;;3.67;;
3901;SDS011;1966;49.908;9.156;2023-04-03T01:39:47;4.83;;;4.33;;
3901;SDS011;1966;49.908;9.156;2023-04-03T01:44:46;4.47;;;4.07;;
3901;SDS011;1966;49.908;9.156;2023-04-03T01:49:45;5.90;;;4.40;;
3901;SDS011;1966;49.908;9.156;2023-04-03T01:54:46;4.83;;;4.20;;
3901;SDS011;1966;49.908;9.156;2023-04-03T01:59:45;4.83;;;4.43;;
3901;SDS011;1966;49.908;9.156;2023-04-03T02:04:44;8.90;;;4.60;;
3901;SDS011;1966;49.908;9.156;2023-04-03T02:09:44;5.33;;;4.37;;
3901;SDS011;1966;49.908;9.156;2023-04-03T02:14:44;5.93;;;4.10;;
3901;SDS011;1966;49.908;9.156;2023-04-03T02:19:43;5.13;;;4.40;;
3901;SDS011;1966;49.908;9.156;2023-04-03T02:24:43;4.67;;;4.20;;
3901;SDS011;1966;49.908;9.156;2023-04-03T02:29:42;4.33;;;3.93;;
3901;SDS011;1966;49.908;9.156;2023-04-03T02:34:43;4.80;;;4.40;;
3901;SDS011;1966;49.908;9.156;2023-04-03T02:39:42;4.57;;;4.17;;
3901;SDS011;1966;49.908;9.156;2023-04-03T02:44:41;5.90;;;4.83;;
3901;SDS011;1966;49.908;9.156;2023-04-03T02:49:42;5.17;;;4.67;;
3901;SDS011;1966;49.908;9.156;2023-04-03T02:54:43;5.70;;;4.60;;
3901;SDS011;1966;49.908;9.156;2023-04-03T02:59:42;4.77;;;4.30;;
3901;SDS011;1966;49.908;9.156;2023-04-03T03:04:43;4.97;;;4.47;;
3901;SDS011;1966;49.908;9.156;2023-04-03T03:09:42;5.80;;;4.33;;
3901;SDS011;1966;49.908;9.156;2023-04-03T03:14:42;5.10;;;4.43;;
3901;SDS011;1966;49.908;9.156;2023-04-03T03:19:41;5.93;;;4.27;;
3901;SDS011;1966;49.908;9.156;2023-04-03T03:24:41;5.50;;;4.57;;
3901;SDS011;1966;49.908;9.156;2023-04-03T03:29:41;5.13;;;4.63;;
3901;SDS011;1966;49.908;9.156;2023-04-03T03:34:40;6.20;;;4.83;;
3901;SDS011;1966;49.908;9.156;2023-04-03T03:39:39;6.67;;;5.40;;
3901;SDS011;1966;49.908;9.156;2023-04-03T03:44:40;5.43;;;4.40;;
3901;SDS011;1966;49.908;9.156;2023-04-03T03:49:39;3.83;;;3.53;;
3901;SDS011;1966;49.908;9.156;2023-04-03T03:54:38;4.80;;;4.30;;
3901;SDS011;1966;49.908;9.156;2023-04-03T03:59:39;5.00;;;3.90;;
3901;SDS011;1966;49.908;9.156;2023-04-03T04:04:39;4.30;;;3.90;;
3901;SDS011;1966;49.908;9.156;2023-04-03T04:09:38;7.70;;;4.43;;
3901;SDS011;1966;49.908;9.156;2023-04-03T04:14:39;4.90;;;4.43;;
3901;SDS011;1966;49.908;9.156;2023-04-03T04:19:38;5.67;;;4.20;;
3901;SDS011;1966;49.908;9.156;2023-04-03T04:24:38;4.70;;;4.20;;
3901;SDS011;1966;49.908;9.156;2023-04-03T04:29:37;4.57;;;4.13;;
3901;SDS011;1966;49.908;9.156;2023-04-03T04:34:37;7.40;;;4.60;;
3901;SDS011;1966;49.908;9.156;2023-04-03T04:39:37;5.50;;;4.40;;
3901;SDS011;1966;49.908;9.156;2023-04-03T04:44:36;4.20;;;3.80;;
3901;SDS011;1966;49.908;9.156;2023-04-03T04:49:35;4.80;;;3.80;;
3901;SDS011;1966;49.908;9.156;2023-04-03T04:54:36;4.23;;;3.63;;
3901;SDS011;1966;49.908;9.156;2023-04-03T04:59:35;4.63;;;3.60;;
3901;SDS011;1966;49.908;9.156;2023-04-03T05:04:34;4.47;;;3.50;;
3901;SDS011;1966;49.908;9.156;2023-04-03T05:09:34;5.37;;;3.80;;
3901;SDS011;1966;49.908;9.156;2023-04-03T05:14:34;5.33;;;3.73;;
3901;SDS011;1966;49.908;9.156;2023-04-03T05:19:33;3.47;;;2.97;;
3901;SDS011;1966;49.908;9.156;2023-04-03T05:24:33;4.57;;;3.27;;
3901;SDS011;1966;49.908;9.156;2023-04-03T05:29:32;3.63;;;3.00;;
3901;SDS011;1966;49.908;9.156;2023-04-03T05:34:32;5.43;;;3.23;;
3901;SDS011;1966;49.908;9.156;2023-04-03T05:39:32;5.00;;;3.77;;
3901;SDS011;1966;49.908;9.156;2023-04-03T05:44:31;4.47;;;3.30;;
3901;SDS011;1966;49.908;9.156;2023-04-03T05:49:31;3.30;;;3.00;;
3901;SDS011;1966;49.908;9.156;2023-04-03T05:54:31;4.97;;;3.30;;
3901;SDS011;1966;49.908;9.156;2023-04-03T05:59:31;2.80;;;2.60;;
3901;SDS011;1966;49.908;9.156;2023-04-03T06:04:31;2.90;;;2.70;;
3901;SDS011;1966;49.908;9.156;2023-04-03T06:09:32;3.40;;;3.10;;
3901;SDS011;1966;49.908;9.156;2023-04-03T06:14:31;2.70;;;2.50;;
3901;SDS011;1966;49.908;9.156;2023-04-03T06:19:31;4.40;;;3.50;;
3901;SDS011;1966;49.908;9.156;2023-04-03T06:24:30;4.77;;;3.30;;
3901;SDS011;1966;49.908;9.156;2023-04-03T06:29:31;4.70;;;2.67;;
3901;SDS011;1966;49.908;9.156;2023-04-03T06:34:30;3.33;;;2.37;;
3901;SDS011;1966;49.908;9.156;2023-04-03T06:39:30;4.33;;;2.47;;
3901;SDS011;1966;49.908;9.156;2023-04-03T06:44:31;3.77;;;2.47;;
3901;SDS011;1966;49.908;9.156;2023-04-03T06:49:32;6.93;;;4.03;;
3901;SDS011;1966;49.908;9.156;2023-04-03T06:54:31;9.77;;;3.37;;
3901;SDS011;1966;49.908;9.156;2023-04-03T06:59:32;3.00;;;2.70;;
3901;SDS011;1966;49.908;9.156;2023-04-03T07:04:31;4.17;;;2.70;;
3901;SDS011;1966;49.908;9.156;2023-04-03T07:09:31;4.60;;;2.70;;
3901;SDS011;1966;49.908;9.156;2023-04-03T07:14:30;5.17;;;3.30;;
3901;SDS011;1966;49.908;9.156;2023-04-03T07:19:31;4.90;;;3.30;;
3901;SDS011;1966;49.908;9.156;2023-04-03T07:24:30;6.07;;;3.20;;
3901;SDS011;1966;49.908;9.156;2023-04-03T07:29:29;7.00;;;3.47;;
3901;SDS011;1966;49.908;9.156;2023-04-03T07:34:30;4.30;;;2.73;;
3901;SDS011;1966;49.908;9.156;2023-04-03T07:39:30;4.93;;;3.30;;
3901;SDS011;1966;49.908;9.156;2023-04-03T07:44:29;3.03;;;2.73;;
3901;SDS011;1966;49.908;9.156;2023-04-03T07:49:30;5.27;;;2.80;;
3901;SDS011;1966;49.908;9.156;2023-04-03T07:54:31;2.43;;;2.00;;
3901;SDS011;1966;49.908;9.156;2023-04-03T07:59:30;3.03;;;2.30;;
3901;SDS011;1966;49.908;9.156;2023-04-03T08:04:31;1.83;;;1.73;;
3901;SDS011;1966;49.908;9.156;2023-04-03T08:09:30;3.73;;;2.53;;
3901;SDS011;1966;49.908;9.156;2023-04-03T08:14:30;6.00;;;2.37;;
3901;SDS011;1966;49.908;9.156;2023-04-03T08:19:30;3.00;;;2.33;;
3901;SDS011;1966;49.908;9.156;2023-04-03T08:24:30;5.20;;;2.33;;
3901;SDS011;1966;49.908;9.156;2023-04-03T08:29:29;3.33;;;2.67;;
3901;SDS011;1966;49.908;9.156;2023-04-03T08:34:28;2.77;;;2.03;;
3901;SDS011;1966;49.908;9.156;2023-04-03T08:39:29;3.20;;;2.57;;
3901;SDS011;1966;49.908;9.156;2023-04-03T08:44:31;3.67;;;2.33;;
3901;SDS011;1966;49.908;9.156;2023-04-03T08:49:36;3.87;;;2.53;;
3901;SDS011;1966;49.908;9.156;2023-04-03T08:54:40;2.33;;;1.97;;
3901;SDS011;1966;49.908;9.156;2023-04-03T08:59:41;3.10;;;2.30;;
3901;SDS011;1966;49.908;9.156;2023-04-03T09:04:40;3.90;;;3.43;;
3901;SDS011;1966;49.908;9.156;2023-04-03T09:09:41;2.77;;;2.20;;
3901;SDS011;1966;49.908;9.156;2023-04-03T09:14:41;3.10;;;2.13;;
3901;SDS011;1966;49.908;9.156;2023-04-03T09:19:47;3.47;;;2.03;;
3901;SDS011;1966;49.908;9.156;2023-04-03T09:24:52;2.73;;;1.93;;
3901;SDS011;1966;49.908;9.156;2023-04-03T09:29:55;2.13;;;1.93;;
3901;SDS011;1966;49.908;9.156;2023-04-03T09:34:56;2.37;;;1.80;;
3901;SDS011;1966;49.908;9.156;2023-04-03T09:39:57;4.10;;;2.20;;
3901;SDS011;1966;49.908;9.156;2023-04-03T09:44:58;3.47;;;2.30;;
3901;SDS011;1966;49.908;9.156;2023-04-03T09:50:08;3.33;;;2.13;;
3901;SDS011;1966;49.908;9.156;2023-04-03T09:55:13;2.37;;;1.77;;
3901;SDS011;1966;49.908;9.156;2023-04-03T10:00:19;3.87;;;2.33;;
3901;SDS011;1966;49.908;9.156;2023-04-03T10:05:27;4.90;;;2.20;;
3901;SDS011;1966;49.908;9.156;2023-04-03T10:10:27;3.67;;;2.07;;
3901;SDS011;1966;49.908;9.156;2023-04-03T10:15:27;2.50;;;2.30;;
3901;SDS011;1966;49.908;9.156;2023-04-03T10:20:28;3.30;;;2.07;;
3901;SDS011;1966;49.908;9.156;2023-04-03T10:25:32;2.30;;;2.10;;
3901;SDS011;1966;49.908;9.156;2023-04-03T10:30:34;2.03;;;1.70;;
3901;SDS011;1966;49.908;9.156;2023-04-03T10:35:39;4.13;;;1.93;;
3901;SDS011;1966;49.908;9.156;2023-04-03T10:40:44;2.60;;;2.30;;
3901;SDS011;1966;49.908;9.156;2023-04-03T10:45:53;3.77;;;2.20;;
3901;SDS011;1966;49.908;9.156;2023-04-03T10:50:57;3.10;;;2.03;;
3901;SDS011;1966;49.908;9.156;2023-04-03T10:56:01;3.73;;;2.10;;
3901;SDS011;1966;49.908;9.156;2023-04-03T11:01:02;2.63;;;2.10;;
3901;SDS011;1966;49.908;9.156;2023-04-03T11:06:05;3.93;;;2.10;;
3901;SDS011;1966;49.908;9.156;2023-04-03T11:11:08;4.00;;;3.03;;
3901;SDS011;1966;49.908;9.156;2023-04-03T11:16:08;2.73;;;2.30;;
3901;SDS011;1966;49.908;9.156;2023-04-03T11:21:09;5.80;;;2.90;;
3901;SDS011;1966;49.908;9.156;2023-04-03T11:26:12;3.00;;;2.73;;
3901;SDS011;1966;49.908;9.156;2023-04-03T11:31:15;3.27;;;2.97;;
3901;SDS011;1966;49.908;9.156;2023-04-03T11:36:19;3.60;;;2.43;;
3901;SDS011;1966;49.908;9.156;2023-04-03T11:41:26;3.27;;;2.60;;
3901;SDS011;1966;49.908;9.156;2023-04-03T11:51:44;2.57;;;2.27;;
3901;SDS011;1966;49.908;9.156;2023-04-03T11:56:45;2.37;;;2.00;;
3901;SDS011;1966;49.908;9.156;2023-04-03T12:01:45;2.40;;;2.20;;
3901;SDS011;1966;49.908;9.156;2023-04-03T12:06:58;2.70;;;2.30;;
3901;SDS011;1966;49.908;9.156;2023-04-03T12:12:00;2.47;;;2.27;;
3901;SDS011;1966;49.908;9.156;2023-04-03T12:17:00;7.40;;;2.87;;
3901;SDS011;1966;49.908;9.156;2023-04-03T12:22:10;2.40;;;2.20;;
3901;SDS011;1966;49.908;9.156;2023-04-03T12:27:25;3.87;;;2.50;;
3901;SDS011;1966;49.908;9.156;2023-04-03T12:32:26;4.10;;;2.47;;
3901;SDS011;1966;49.908;9.156;2023-04-03T12:37:39;4.00;;;2.77;;
3901;SDS011;1966;49.908;9.156;2023-04-03T12:42:49;3.40;;;2.27;;
3901;SDS011;1966;49.908;9.156;2023-04-03T12:47:52;2.40;;;2.20;;
3901;SDS011;1966;49.908;9.156;2023-04-03T12:52:55;2.83;;;2.03;;
3901;SDS011;1966;49.908;9.156;2023-04-03T12:57:56;2.40;;;2.10;;
3901;SDS011;1966;49.908;9.156;2023-04-03T13:02:56;2.27;;;2.00;;
3901;SDS011;1966;49.908;9.156;2023-04-03T13:07:57;2.87;;;2.40;;
3901;SDS011;1966;49.908;9.156;2023-04-03T13:13:06;4.10;;;2.30;;
3901;SDS011;1966;49.908;9.156;2023-04-03T13:18:10;3.90;;;2.20;;
3901;SDS011;1966;49.908;9.156;2023-04-03T13:23:19;2.47;;;2.20;;
3901;SDS011;1966;49.908;9.156;2023-04-03T13:28:22;2.40;;;2.13;;
3901;SDS011;1966;49.908;9.156;2023-04-03T13:33:23;2.60;;;2.40;;
3901;SDS011;1966;49.908;9.156;2023-04-03T13:38:24;2.10;;;1.90;;
3901;SDS011;1966;49.908;9.156;2023-04-03T13:43:26;3.87;;;2.17;;
3901;SDS011;1966;49.908;9.156;2023-04-03T13:48:26;3.00;;;1.90;;
3901;SDS011;1966;49.908;9.156;2023-04-03T13:53:25;1.80;;;1.70;;
3901;SDS011;1966;49.908;9.156;2023-04-03T13:58:27;1.70;;;1.60;;
3901;SDS011;1966;49.908;9.156;2023-04-03T14:03:28;1.70;;;1.60;;
3901;SDS011;1966;49.908;9.156;2023-04-03T14:08:28;2.27;;;2.00;;
3901;SDS011;1966;49.908;9.156;2023-04-03T14:13:30;3.73;;;2.20;;
3901;SDS011;1966;49.908;9.156;2023-04-03T14:18:29;4.20;;;2.10;;
3901;SDS011;1966;49.908;9.156;2023-04-03T14:23:28;2.23;;;2.03;;
3901;SDS011;1966;49.908;9.156;2023-04-03T14:28:31;2.90;;;2.23;;
3901;SDS011;1966;49.908;9.156;2023-04-03T14:33:30;2.57;;;2.03;;
3901;SDS011;1966;49.908;9.156;2023-04-03T14:38:32;3.00;;;2.20;;
3901;SDS011;1966;49.908;9.156;2023-04-03T14:43:33;2.73;;;2.20;;
3901;SDS011;1966;49.908;9.156;2023-04-03T14:48:32;4.40;;;2.23;;
3901;SDS011;1966;49.908;9.156;2023-04-03T14:53:32;2.43;;;2.23;;
3901;SDS011;1966;49.908;9.156;2023-04-03T14:58:33;2.83;;;2.43;;
3901;SDS011;1966;49.908;9.156;2023-04-03T15:03:34;2.47;;;2.27;;
3901;SDS011;1966;49.908;9.156;2023-04-03T15:08:33;3.00;;;2.70;;
3901;SDS011;1966;49.908;9.156;2023-04-03T15:13:34;3.00;;;2.70;;
3901;SDS011;1966;49.908;9.156;2023-04-03T15:18:35;3.37;;;2.50;;
3901;SDS011;1966;49.908;9.156;2023-04-03T15:23:35;3.93;;;2.20;;
3901;SDS011;1966;49.908;9.156;2023-04-03T15:28:37;3.47;;;2.97;;
3901;SDS011;1966;49.908;9.156;2023-04-03T15:33:36;3.30;;;2.50;;
3901;SDS011;1966;49.908;9.156;2023-04-03T15:38:36;3.20;;;2.23;;
3901;SDS011;1966;49.908;9.156;2023-04-03T15:43:37;3.53;;;2.80;;
3901;SDS011;1966;49.908;9.156;2023-04-03T15:48:36;3.67;;;3.03;;
3901;SDS011;1966;49.908;9.156;2023-04-03T15:53:35;2.30;;;2.10;;
3901;SDS011;1966;49.908;9.156;2023-04-03T15:58:36;2.73;;;2.33;;
3901;SDS011;1966;49.908;9.156;2023-04-03T16:03:35;3.47;;;2.20;;
3901;SDS011;1966;49.908;9.156;2023-04-03T16:08:36;2.33;;;2.13;;
3901;SDS011;1966;49.908;9.156;2023-04-03T16:13:37;2.03;;;1.83;;
3901;SDS011;1966;49.908;9.156;2023-04-03T16:18:36;3.23;;;2.30;;
3901;SDS011;1966;49.908;9.156;2023-04-03T16:23:35;4.90;;;3.07;;
3901;SDS011;1966;49.908;9.156;2023-04-03T16:28:35;2.43;;;2.20;;
3901;SDS011;1966;49.908;9.156;2023-04-03T16:33:35;3.90;;;2.93;;
3901;SDS011;1966;49.908;9.156;2023-04-03T16:38:35;2.50;;;2.27;;
3901;SDS011;1966;49.908;9.156;2023-04-03T16:43:35;3.50;;;2.17;;
3901;SDS011;1966;49.908;9.156;2023-04-03T16:48:36;3.03;;;2.30;;
3901;SDS011;1966;49.908;9.156;2023-04-03T16:53:35;5.80;;;2.90;;
3901;SDS011;1966;49.908;9.156;2023-04-03T16:58:34;5.77;;;3.27;;
3901;SDS011;1966;49.908;9.156;2023-04-03T17:03:34;6.20;;;4.03;;
3901;SDS011;1966;49.908;9.156;2023-04-03T17:08:34;3.37;;;2.50;;
3901;SDS011;1966;49.908;9.156;2023-04-03T17:13:34;3.40;;;2.50;;
3901;SDS011;1966;49.908;9.156;2023-04-03T17:18:34;3.30;;;2.27;;
3901;SDS011;1966;49.908;9.156;2023-04-03T17:23:34;2.43;;;1.70;;
3901;SDS011;1966;49.908;9.156;2023-04-03T17:28:35;2.20;;;2.00;;
3901;SDS011;1966;49.908;9.156;2023-04-03T17:33:34;3.17;;;1.63;;
3901;SDS011;1966;49.908;9.156;2023-04-03T17:38:35;2.67;;;2.23;;
3901;SDS011;1966;49.908;9.156;2023-04-03T17:43:34;2.63;;;2.20;;
3901;SDS011;1966;49.908;9.156;2023-04-03T17:48:34;2.80;;;2.40;;
3901;SDS011;1966;49.908;9.156;2023-04-03T17:53:35;5.57;;;3.00;;
3901;SDS011;1966;49.908;9.156;2023-04-03T17:58:34;2.70;;;2.40;;
3901;SDS011;1966;49.908;9.156;2023-04-03T18:03:33;2.40;;;2.07;;
3901;SDS011;1966;49.908;9.156;2023-04-03T18:08:34;3.40;;;2.50;;
3901;SDS011;1966;49.908;9.156;2023-04-03T18:13:35;3.17;;;2.37;;
3901;SDS011;1966;49.908;9.156;2023-04-03T18:18:35;2.73;;;2.53;;
3901;SDS011;1966;49.908;9.156;2023-04-03T18:23:36;7.53;;;3.30;;
3901;SDS011;1966;49.908;9.156;2023-04-03T18:28:37;8.80;;;4.30;;
3901;SDS011;1966;49.908;9.156;2023-04-03T18:33:37;14.77;;;6.43;;
3901;SDS011;1966;49.908;9.156;2023-04-03T18:38:38;9.17;;;5.33;;
3901;SDS011;1966;49.908;9.156;2023-04-03T18:43:37;13.27;;;6.43;;
3901;SDS011;1966;49.908;9.156;2023-04-03T18:48:36;13.90;;;6.83;;
3901;SDS011;1966;49.908;9.156;2023-04-03T18:53:39;12.23;;;6.70;;
3901;SDS011;1966;49.908;9.156;2023-04-03T18:58:38;15.00;;;6.80;;
3901;SDS011;1966;49.908;9.156;2023-04-03T19:03:38;8.73;;;4.80;;
3901;SDS011;1966;49.908;9.156;2023-04-03T19:08:37;9.83;;;5.43;;
3901;SDS011;1966;49.908;9.156;2023-04-03T19:13:38;5.93;;;3.20;;
3901;SDS011;1966;49.908;9.156;2023-04-03T19:18:37;4.63;;;3.00;;
3901;SDS011;1966;49.908;9.156;2023-04-03T19:23:36;6.57;;;2.67;;
3901;SDS011;1966;49.908;9.156;2023-04-03T19:28:40;9.87;;;3.23;;
3901;SDS011;1966;49.908;9.156;2023-04-03T19:33:39;3.63;;;2.53;;
3901;SDS011;1966;49.908;9.156;2023-04-03T19:38:39;6.73;;;2.80;;
3901;SDS011;1966;49.908;9.156;2023-04-03T19:43:39;5.47;;;2.50;;
3901;SDS011;1966;49.908;9.156;2023-04-03T19:48:39;5.60;;;2.97;;
3901;SDS011;1966;49.908;9.156;2023-04-03T19:53:38;3.50;;;2.57;;
3901;SDS011;1966;49.908;9.156;2023-04-03T19:58:38;2.93;;;2.50;;
3901;SDS011;1966;49.908;9.156;2023-04-03T20:03:39;4.80;;;3.17;;
3901;SDS011;1966;49.908;9.156;2023-04-03T20:08:39;6.73;;;3.07;;
3901;SDS011;1966;49.908;9.156;2023-04-03T20:13:38;6.53;;;3.00;;
3901;SDS011;1966;49.908;9.156;2023-04-03T20:18:39;8.70;;;3.97;;
3901;SDS011;1966;49.908;9.156;2023-04-03T20:23:39;2.80;;;2.43;;
3901;SDS011;1966;49.908;9.156;2023-04-03T20:28:38;6.30;;;2.53;;
3901;SDS011;1966;49.908;9.156;2023-04-03T20:33:39;6.20;;;2.57;;
3901;SDS011;1966;49.908;9.156;2023-04-03T20:38:38;3.13;;;2.37;;
3901;SDS011;1966;49.908;9.156;2023-04-03T20:43:38;2.17;;;2.00;;
3901;SDS011;1966;49.908;9.156;2023-04-03T20:48:41;2.40;;;2.20;;
3901;SDS011;1966;49.908;9.156;2023-04-03T20:53:40;4.43;;;2.03;;
3901;SDS011;1966;49.908;9.156;2023-04-03T20:58:40;4.93;;;2.70;;
3901;SDS011;1966;49.908;9.156;2023-04-03T21:03:41;4.27;;;2.40;;
3901;SDS011;1966;49.908;9.156;2023-04-03T21:19:26;4.50;;;2.67;;
3901;SDS011;1966;49.908;9.156;2023-04-03T21:24:25;4.80;;;3.43;;
3901;SDS011;1966;49.908;9.156;2023-04-03T21:29:25;2.50;;;2.27;;
3901;SDS011;1966;49.908;9.156;2023-04-03T21:34:24;3.20;;;2.07;;
3901;SDS011;1966;49.908;9.156;2023-04-03T21:39:25;2.53;;;2.27;;
3901;SDS011;1966;49.908;9.156;2023-04-03T21:44:25;2.83;;;2.03;;
3901;SDS011;1966;49.908;9.156;2023-04-03T21:49:25;1.93;;;1.70;;
3901;SDS011;1966;49.908;9.156;2023-04-03T21:54:25;4.87;;;2.50;;
3901;SDS011;1966;49.908;9.156;2023-04-03T21:59:25;5.00;;;2.50;;
3901;SDS011;1966;49.908;9.156;2023-04-03T22:04:24;4.73;;;2.37;;
3901;SDS011;1966;49.908;9.156;2023-04-03T22:09:25;5.10;;;2.90;;
3901;SDS011;1966;49.908;9.156;2023-04-03T22:14:25;7.80;;;3.00;;
3901;SDS011;1966;49.908;9.156;2023-04-03T22:19:24;8.10;;;2.93;;
3901;SDS011;1966;49.908;9.156;2023-04-03T22:24:23;3.30;;;2.60;;
3901;SDS011;1966;49.908;9.156;2023-04-03T22:29:24;2.67;;;2.10;;
3901;SDS011;1966;49.908;9.156;2023-04-03T22:34:24;3.50;;;2.70;;
3901;SDS011;1966;49.908;9.156;2023-04-03T22:39:24;2.10;;;1.90;;
3901;SDS011;1966;49.908;9.156;2023-04-03T22:44:24;6.67;;;2.80;;
3901;SDS011;1966;49.908;9.156;2023-04-03T22:49:24;3.57;;;2.80;;
3901;SDS011;1966;49.908;9.156;2023-04-03T22:54:23;2.70;;;2.50;;
3901;SDS011;1966;49.908;9.156;2023-04-03T22:59:22;4.50;;;2.60;;
3901;SDS011;1966;49.908;9.156;2023-04-03T23:04:23;3.63;;;2.80;;
3901;SDS011;1966;49.908;9.156;2023-04-03T23:09:22;3.90;;;2.90;;
3901;SDS011;1966;49.908;9.156;2023-04-03T23:14:21;4.37;;;3.20;;
3901;SDS011;1966;49.908;9.156;2023-04-03T23:19:22;5.83;;;3.30;;
3901;SDS011;1966;49.908;9.156;2023-04-03T23:24:21;6.30;;;3.30;;
3901;SDS011;1966;49.908;9.156;2023-04-03T23:29:20;2.97;;;2.40;;
3901;SDS011;1966;49.908;9.156;2023-04-03T23:34:20;4.50;;;2.40;;
3901;SDS011;1966;49.908;9.156;2023-04-03T23:39:21;7.83;;;2.63;;
3901;SDS011;1966;49.908;9.156;2023-04-03T23:44:20;4.53;;;3.10;;
3901;SDS011;1966;49.908;9.156;2023-04-03T23:49:19;5.27;;;2.97;;
3901;SDS011;1966;49.908;9.156;2023-04-03T23:54:18;5.00;;;3.07;;
3901;SDS011;1966;49.908;9.156;2023-04-03T23:59:19;8.00;;;3.30;;
